Terminal Aerodrome Forecast
Issued by NWS

Home | Current Version | Previous Version | Text Only | Print | Product List | Glossary On
Versions: 1 2 3 4 5 6 7 8 9 10 11 12 13
000
FTUS43 KFGF 230500
TAFTVF
TAF
KTVF 230520Z 2306/2406 11008KT P6SM BKN250
     FM231200 12015KT P6SM BKN050
     FM231600 13022G30KT 5SM -RA OVC040
     FM240200 11016KT 4SM -RA OVC025
      AMD LTD TO CLD VIS AND WIND=

USA.gov is the U.S. government's official web portal to all federal, state and local government web resources and services.